sensor_id;sensor_type;location;lat;lon;timestamp;P1;durP1;ratioP1;P2;durP2;ratioP2
3433;SDS011;1730;41.932;25.548;2022-07-05T00:00:38;4.17;;;2.67;;
3433;SDS011;1730;41.932;25.548;2022-07-05T00:03:03;4.00;;;3.13;;
3433;SDS011;1730;41.932;25.548;2022-07-05T00:05:29;2.83;;;2.53;;
3433;SDS011;1730;41.932;25.548;2022-07-05T00:07:54;3.17;;;2.97;;
3433;SDS011;1730;41.932;25.548;2022-07-05T00:10:20;9.53;;;2.73;;
3433;SDS011;1730;41.932;25.548;2022-07-05T00:12:46;8.20;;;2.40;;
3433;SDS011;1730;41.932;25.548;2022-07-05T00:15:12;4.30;;;2.60;;
3433;SDS011;1730;41.932;25.548;2022-07-05T00:17:38;5.53;;;2.90;;
3433;SDS011;1730;41.932;25.548;2022-07-05T00:20:04;5.97;;;2.80;;
3433;SDS011;1730;41.932;25.548;2022-07-05T00:22:30;7.60;;;3.30;;
3433;SDS011;1730;41.932;25.548;2022-07-05T00:24:57;3.40;;;3.10;;
3433;SDS011;1730;41.932;25.548;2022-07-05T00:27:22;5.40;;;4.33;;
3433;SDS011;1730;41.932;25.548;2022-07-05T00:29:48;5.03;;;4.33;;
3433;SDS011;1730;41.932;25.548;2022-07-05T00:32:14;9.17;;;3.60;;
3433;SDS011;1730;41.932;25.548;2022-07-05T00:34:39;5.03;;;3.73;;
3433;SDS011;1730;41.932;25.548;2022-07-05T00:37:05;4.50;;;3.07;;
3433;SDS011;1730;41.932;25.548;2022-07-05T00:39:30;5.90;;;3.30;;
3433;SDS011;1730;41.932;25.548;2022-07-05T00:41:56;3.67;;;3.37;;
3433;SDS011;1730;41.932;25.548;2022-07-05T00:44:35;3.73;;;3.43;;
3433;SDS011;1730;41.932;25.548;2022-07-05T00:47:04;4.40;;;3.00;;
3433;SDS011;1730;41.932;25.548;2022-07-05T00:49:31;3.03;;;2.80;;
3433;SDS011;1730;41.932;25.548;2022-07-05T00:51:58;5.07;;;3.50;;
3433;SDS011;1730;41.932;25.548;2022-07-05T00:54:25;10.60;;;3.33;;
3433;SDS011;1730;41.932;25.548;2022-07-05T00:56:54;8.73;;;3.80;;
3433;SDS011;1730;41.932;25.548;2022-07-05T00:59:20;4.90;;;3.50;;
3433;SDS011;1730;41.932;25.548;2022-07-05T01:01:46;7.90;;;3.77;;
3433;SDS011;1730;41.932;25.548;2022-07-05T01:04:12;3.27;;;2.97;;
3433;SDS011;1730;41.932;25.548;2022-07-05T01:06:42;4.30;;;3.60;;
3433;SDS011;1730;41.932;25.548;2022-07-05T01:09:10;3.20;;;2.90;;
3433;SDS011;1730;41.932;25.548;2022-07-05T01:11:44;2.93;;;2.73;;
3433;SDS011;1730;41.932;25.548;2022-07-05T01:14:13;5.57;;;3.33;;
3433;SDS011;1730;41.932;25.548;2022-07-05T01:16:44;6.00;;;3.27;;
3433;SDS011;1730;41.932;25.548;2022-07-05T01:19:10;3.37;;;2.80;;
3433;SDS011;1730;41.932;25.548;2022-07-05T01:21:41;5.20;;;2.90;;
3433;SDS011;1730;41.932;25.548;2022-07-05T01:24:09;5.13;;;2.97;;
3433;SDS011;1730;41.932;25.548;2022-07-05T01:26:36;6.63;;;3.07;;
3433;SDS011;1730;41.932;25.548;2022-07-05T01:29:02;4.10;;;3.20;;
3433;SDS011;1730;41.932;25.548;2022-07-05T01:31:28;7.60;;;3.33;;
3433;SDS011;1730;41.932;25.548;2022-07-05T01:33:55;3.73;;;2.80;;
3433;SDS011;1730;41.932;25.548;2022-07-05T01:36:21;7.00;;;3.00;;
3433;SDS011;1730;41.932;25.548;2022-07-05T01:38:47;3.93;;;3.63;;
3433;SDS011;1730;41.932;25.548;2022-07-05T01:41:13;7.47;;;3.20;;
3433;SDS011;1730;41.932;25.548;2022-07-05T01:43:39;3.80;;;3.07;;
3433;SDS011;1730;41.932;25.548;2022-07-05T01:46:05;5.13;;;3.40;;
3433;SDS011;1730;41.932;25.548;2022-07-05T01:48:34;4.50;;;3.20;;
3433;SDS011;1730;41.932;25.548;2022-07-05T01:53:34;4.30;;;2.83;;
3433;SDS011;1730;41.932;25.548;2022-07-05T01:56:04;3.50;;;3.20;;
3433;SDS011;1730;41.932;25.548;2022-07-05T01:58:30;6.30;;;3.73;;
3433;SDS011;1730;41.932;25.548;2022-07-05T02:00:57;5.90;;;3.33;;
3433;SDS011;1730;41.932;25.548;2022-07-05T02:03:24;5.90;;;3.90;;
3433;SDS011;1730;41.932;25.548;2022-07-05T02:05:51;7.30;;;3.33;;
3433;SDS011;1730;41.932;25.548;2022-07-05T02:08:17;6.57;;;3.30;;
3433;SDS011;1730;41.932;25.548;2022-07-05T02:10:44;4.10;;;3.53;;
3433;SDS011;1730;41.932;25.548;2022-07-05T02:13:10;3.70;;;3.40;;
3433;SDS011;1730;41.932;25.548;2022-07-05T02:15:38;6.13;;;4.10;;
3433;SDS011;1730;41.932;25.548;2022-07-05T02:18:05;10.10;;;3.53;;
3433;SDS011;1730;41.932;25.548;2022-07-05T02:20:33;3.67;;;3.37;;
3433;SDS011;1730;41.932;25.548;2022-07-05T02:22:59;3.80;;;3.00;;
3433;SDS011;1730;41.932;25.548;2022-07-05T02:25:25;4.30;;;3.83;;
3433;SDS011;1730;41.932;25.548;2022-07-05T02:27:51;4.27;;;3.87;;
3433;SDS011;1730;41.932;25.548;2022-07-05T02:30:18;4.93;;;3.80;;
3433;SDS011;1730;41.932;25.548;2022-07-05T02:32:44;3.80;;;3.50;;
3433;SDS011;1730;41.932;25.548;2022-07-05T02:35:10;4.50;;;3.57;;
3433;SDS011;1730;41.932;25.548;2022-07-05T02:37:36;6.40;;;3.60;;
3433;SDS011;1730;41.932;25.548;2022-07-05T02:40:05;4.77;;;3.50;;
3433;SDS011;1730;41.932;25.548;2022-07-05T02:42:32;10.03;;;3.90;;
3433;SDS011;1730;41.932;25.548;2022-07-05T02:44:58;6.10;;;3.50;;
3433;SDS011;1730;41.932;25.548;2022-07-05T02:47:23;5.07;;;3.80;;
3433;SDS011;1730;41.932;25.548;2022-07-05T02:49:49;5.60;;;3.70;;
3433;SDS011;1730;41.932;25.548;2022-07-05T02:52:14;12.63;;;3.97;;
3433;SDS011;1730;41.932;25.548;2022-07-05T02:54:40;4.57;;;3.63;;
3433;SDS011;1730;41.932;25.548;2022-07-05T02:57:05;4.97;;;3.60;;
3433;SDS011;1730;41.932;25.548;2022-07-05T02:59:31;7.40;;;4.03;;
3433;SDS011;1730;41.932;25.548;2022-07-05T03:01:57;3.83;;;3.53;;
3433;SDS011;1730;41.932;25.548;2022-07-05T03:04:22;5.57;;;4.23;;
3433;SDS011;1730;41.932;25.548;2022-07-05T03:06:48;3.57;;;3.30;;
3433;SDS011;1730;41.932;25.548;2022-07-05T03:09:13;3.73;;;3.33;;
3433;SDS011;1730;41.932;25.548;2022-07-05T03:11:39;3.30;;;3.10;;
3433;SDS011;1730;41.932;25.548;2022-07-05T03:14:05;4.23;;;3.97;;
3433;SDS011;1730;41.932;25.548;2022-07-05T03:16:30;5.27;;;3.87;;
3433;SDS011;1730;41.932;25.548;2022-07-05T03:18:56;4.40;;;4.00;;
3433;SDS011;1730;41.932;25.548;2022-07-05T03:21:23;6.17;;;4.03;;
3433;SDS011;1730;41.932;25.548;2022-07-05T03:23:48;4.33;;;3.93;;
3433;SDS011;1730;41.932;25.548;2022-07-05T03:26:14;3.73;;;3.53;;
3433;SDS011;1730;41.932;25.548;2022-07-05T03:28:41;6.00;;;3.50;;
3433;SDS011;1730;41.932;25.548;2022-07-05T03:31:06;4.80;;;3.53;;
3433;SDS011;1730;41.932;25.548;2022-07-05T03:33:32;3.90;;;3.60;;
3433;SDS011;1730;41.932;25.548;2022-07-05T03:35:57;4.37;;;3.50;;
3433;SDS011;1730;41.932;25.548;2022-07-05T03:38:23;5.77;;;4.23;;
3433;SDS011;1730;41.932;25.548;2022-07-05T03:40:49;4.10;;;3.80;;
3433;SDS011;1730;41.932;25.548;2022-07-05T03:43:15;3.83;;;3.53;;
3433;SDS011;1730;41.932;25.548;2022-07-05T03:45:40;4.47;;;3.43;;
3433;SDS011;1730;41.932;25.548;2022-07-05T03:48:07;4.90;;;3.80;;
3433;SDS011;1730;41.932;25.548;2022-07-05T03:50:33;9.93;;;3.53;;
3433;SDS011;1730;41.932;25.548;2022-07-05T03:52:58;11.53;;;3.33;;
3433;SDS011;1730;41.932;25.548;2022-07-05T03:55:24;9.83;;;3.60;;
3433;SDS011;1730;41.932;25.548;2022-07-05T03:57:49;4.50;;;4.20;;
3433;SDS011;1730;41.932;25.548;2022-07-05T04:00:15;3.77;;;3.57;;
3433;SDS011;1730;41.932;25.548;2022-07-05T04:02:41;4.17;;;3.60;;
3433;SDS011;1730;41.932;25.548;2022-07-05T04:05:06;6.00;;;3.73;;
3433;SDS011;1730;41.932;25.548;2022-07-05T04:07:33;3.60;;;3.27;;
3433;SDS011;1730;41.932;25.548;2022-07-05T04:09:59;3.43;;;3.23;;
3433;SDS011;1730;41.932;25.548;2022-07-05T04:12:24;7.53;;;3.63;;
3433;SDS011;1730;41.932;25.548;2022-07-05T04:14:50;11.37;;;3.27;;
3433;SDS011;1730;41.932;25.548;2022-07-05T04:17:16;7.50;;;4.07;;
3433;SDS011;1730;41.932;25.548;2022-07-05T04:19:42;7.40;;;3.90;;
3433;SDS011;1730;41.932;25.548;2022-07-05T04:22:08;13.50;;;3.60;;
3433;SDS011;1730;41.932;25.548;2022-07-05T04:24:34;5.57;;;4.43;;
3433;SDS011;1730;41.932;25.548;2022-07-05T04:27:19;4.50;;;3.33;;
3433;SDS011;1730;41.932;25.548;2022-07-05T04:29:44;8.30;;;3.80;;
3433;SDS011;1730;41.932;25.548;2022-07-05T04:32:11;6.50;;;3.50;;
3433;SDS011;1730;41.932;25.548;2022-07-05T04:34:37;8.03;;;3.67;;
3433;SDS011;1730;41.932;25.548;2022-07-05T04:37:03;4.13;;;3.80;;
3433;SDS011;1730;41.932;25.548;2022-07-05T04:39:28;7.70;;;4.33;;
3433;SDS011;1730;41.932;25.548;2022-07-05T04:41:54;4.03;;;3.83;;
3433;SDS011;1730;41.932;25.548;2022-07-05T04:44:21;5.67;;;4.13;;
3433;SDS011;1730;41.932;25.548;2022-07-05T04:46:46;10.27;;;4.10;;
3433;SDS011;1730;41.932;25.548;2022-07-05T04:49:12;7.80;;;4.30;;
3433;SDS011;1730;41.932;25.548;2022-07-05T04:51:38;8.13;;;4.40;;
3433;SDS011;1730;41.932;25.548;2022-07-05T04:54:03;3.93;;;3.63;;
3433;SDS011;1730;41.932;25.548;2022-07-05T04:56:29;8.33;;;3.87;;
3433;SDS011;1730;41.932;25.548;2022-07-05T04:58:54;5.93;;;4.37;;
3433;SDS011;1730;41.932;25.548;2022-07-05T05:01:20;9.50;;;4.27;;
3433;SDS011;1730;41.932;25.548;2022-07-05T05:03:45;6.50;;;4.17;;
3433;SDS011;1730;41.932;25.548;2022-07-05T05:06:11;5.07;;;4.40;;
3433;SDS011;1730;41.932;25.548;2022-07-05T05:08:39;6.17;;;5.03;;
3433;SDS011;1730;41.932;25.548;2022-07-05T05:11:06;10.30;;;5.80;;
3433;SDS011;1730;41.932;25.548;2022-07-05T05:13:32;10.93;;;5.80;;
3433;SDS011;1730;41.932;25.548;2022-07-05T05:15:59;5.33;;;4.83;;
3433;SDS011;1730;41.932;25.548;2022-07-05T05:18:26;8.00;;;4.80;;
3433;SDS011;1730;41.932;25.548;2022-07-05T05:20:52;5.80;;;5.27;;
3433;SDS011;1730;41.932;25.548;2022-07-05T05:23:20;5.60;;;4.93;;
3433;SDS011;1730;41.932;25.548;2022-07-05T05:25:47;11.50;;;5.93;;
3433;SDS011;1730;41.932;25.548;2022-07-05T05:28:14;7.60;;;5.07;;
3433;SDS011;1730;41.932;25.548;2022-07-05T05:30:39;9.97;;;5.07;;
3433;SDS011;1730;41.932;25.548;2022-07-05T05:33:05;7.00;;;5.33;;
3433;SDS011;1730;41.932;25.548;2022-07-05T05:35:30;9.23;;;4.00;;
3433;SDS011;1730;41.932;25.548;2022-07-05T05:37:56;9.57;;;4.37;;
3433;SDS011;1730;41.932;25.548;2022-07-05T05:40:22;5.53;;;2.47;;
3433;SDS011;1730;41.932;25.548;2022-07-05T05:42:49;6.47;;;3.70;;
3433;SDS011;1730;41.932;25.548;2022-07-05T05:45:15;6.63;;;3.80;;
3433;SDS011;1730;41.932;25.548;2022-07-05T05:47:52;9.03;;;4.27;;
3433;SDS011;1730;41.932;25.548;2022-07-05T05:50:20;9.53;;;3.93;;
3433;SDS011;1730;41.932;25.548;2022-07-05T05:52:47;6.47;;;4.60;;
3433;SDS011;1730;41.932;25.548;2022-07-05T05:55:12;7.07;;;5.10;;
3433;SDS011;1730;41.932;25.548;2022-07-05T05:57:38;7.13;;;5.17;;
3433;SDS011;1730;41.932;25.548;2022-07-05T06:00:04;11.93;;;6.63;;
3433;SDS011;1730;41.932;25.548;2022-07-05T06:02:32;11.53;;;5.60;;
3433;SDS011;1730;41.932;25.548;2022-07-05T06:04:58;7.87;;;5.83;;
3433;SDS011;1730;41.932;25.548;2022-07-05T06:07:23;9.03;;;5.43;;
3433;SDS011;1730;41.932;25.548;2022-07-05T06:09:49;5.97;;;5.27;;
3433;SDS011;1730;41.932;25.548;2022-07-05T06:12:14;17.23;;;5.90;;
3433;SDS011;1730;41.932;25.548;2022-07-05T06:14:40;9.33;;;5.43;;
3433;SDS011;1730;41.932;25.548;2022-07-05T06:17:05;8.60;;;5.53;;
3433;SDS011;1730;41.932;25.548;2022-07-05T06:19:31;9.00;;;5.10;;
3433;SDS011;1730;41.932;25.548;2022-07-05T06:21:56;8.37;;;5.00;;
3433;SDS011;1730;41.932;25.548;2022-07-05T06:24:22;7.80;;;4.60;;
3433;SDS011;1730;41.932;25.548;2022-07-05T06:26:48;9.07;;;5.33;;
3433;SDS011;1730;41.932;25.548;2022-07-05T06:29:13;2.80;;;2.60;;
3433;SDS011;1730;41.932;25.548;2022-07-05T06:31:39;3.23;;;2.80;;
3433;SDS011;1730;41.932;25.548;2022-07-05T06:34:04;4.20;;;2.60;;
3433;SDS011;1730;41.932;25.548;2022-07-05T06:36:30;5.53;;;2.70;;
3433;SDS011;1730;41.932;25.548;2022-07-05T06:38:56;4.50;;;4.10;;
3433;SDS011;1730;41.932;25.548;2022-07-05T06:41:21;2.90;;;2.70;;
3433;SDS011;1730;41.932;25.548;2022-07-05T06:43:47;5.00;;;3.03;;
3433;SDS011;1730;41.932;25.548;2022-07-05T06:46:12;5.03;;;2.50;;
3433;SDS011;1730;41.932;25.548;2022-07-05T06:48:38;4.93;;;3.00;;
3433;SDS011;1730;41.932;25.548;2022-07-05T06:51:04;5.93;;;2.60;;
3433;SDS011;1730;41.932;25.548;2022-07-05T06:53:30;6.53;;;2.87;;
3433;SDS011;1730;41.932;25.548;2022-07-05T06:55:56;5.77;;;2.83;;
3433;SDS011;1730;41.932;25.548;2022-07-05T06:58:22;5.90;;;3.53;;
3433;SDS011;1730;41.932;25.548;2022-07-05T07:00:48;6.80;;;2.53;;
3433;SDS011;1730;41.932;25.548;2022-07-05T07:03:14;3.50;;;2.67;;
3433;SDS011;1730;41.932;25.548;2022-07-05T07:05:40;5.53;;;3.57;;
3433;SDS011;1730;41.932;25.548;2022-07-05T07:08:05;7.50;;;3.30;;
3433;SDS011;1730;41.932;25.548;2022-07-05T07:10:49;8.23;;;3.20;;
3433;SDS011;1730;41.932;25.548;2022-07-05T07:13:15;8.73;;;2.90;;
3433;SDS011;1730;41.932;25.548;2022-07-05T07:15:40;2.93;;;2.67;;
3433;SDS011;1730;41.932;25.548;2022-07-05T07:18:06;4.33;;;3.27;;
3433;SDS011;1730;41.932;25.548;2022-07-05T07:20:32;5.80;;;3.20;;
3433;SDS011;1730;41.932;25.548;2022-07-05T07:22:57;6.20;;;2.57;;
3433;SDS011;1730;41.932;25.548;2022-07-05T07:25:23;8.03;;;3.13;;
3433;SDS011;1730;41.932;25.548;2022-07-05T07:27:50;7.47;;;3.30;;
3433;SDS011;1730;41.932;25.548;2022-07-05T07:30:21;3.53;;;3.23;;
3433;SDS011;1730;41.932;25.548;2022-07-05T07:32:48;3.63;;;3.30;;
3433;SDS011;1730;41.932;25.548;2022-07-05T07:35:15;6.90;;;3.00;;
3433;SDS011;1730;41.932;25.548;2022-07-05T07:37:40;3.87;;;3.10;;
3433;SDS011;1730;41.932;25.548;2022-07-05T07:40:07;4.77;;;3.13;;
3433;SDS011;1730;41.932;25.548;2022-07-05T07:42:34;5.13;;;2.97;;
3433;SDS011;1730;41.932;25.548;2022-07-05T07:45:00;3.87;;;3.57;;
3433;SDS011;1730;41.932;25.548;2022-07-05T07:47:33;3.67;;;2.93;;
3433;SDS011;1730;41.932;25.548;2022-07-05T07:50:00;5.73;;;3.17;;
3433;SDS011;1730;41.932;25.548;2022-07-05T07:52:26;6.27;;;2.87;;
3433;SDS011;1730;41.932;25.548;2022-07-05T07:54:52;3.57;;;2.90;;
3433;SDS011;1730;41.932;25.548;2022-07-05T07:57:19;7.33;;;2.70;;
3433;SDS011;1730;41.932;25.548;2022-07-05T07:59:45;3.37;;;3.00;;
3433;SDS011;1730;41.932;25.548;2022-07-05T08:02:10;3.77;;;2.57;;
3433;SDS011;1730;41.932;25.548;2022-07-05T08:04:36;6.70;;;2.60;;
3433;SDS011;1730;41.932;25.548;2022-07-05T08:07:02;3.70;;;2.83;;
3433;SDS011;1730;41.932;25.548;2022-07-05T08:09:29;3.73;;;2.80;;
3433;SDS011;1730;41.932;25.548;2022-07-05T08:11:55;3.53;;;2.93;;
3433;SDS011;1730;41.932;25.548;2022-07-05T08:14:21;3.80;;;2.30;;
3433;SDS011;1730;41.932;25.548;2022-07-05T08:16:47;4.20;;;2.63;;
3433;SDS011;1730;41.932;25.548;2022-07-05T08:19:13;2.70;;;2.50;;
3433;SDS011;1730;41.932;25.548;2022-07-05T08:21:57;3.73;;;3.10;;
3433;SDS011;1730;41.932;25.548;2022-07-05T08:24:23;6.37;;;2.60;;
3433;SDS011;1730;41.932;25.548;2022-07-05T08:26:48;7.63;;;2.50;;
3433;SDS011;1730;41.932;25.548;2022-07-05T08:29:14;3.50;;;2.70;;
3433;SDS011;1730;41.932;25.548;2022-07-05T08:31:41;4.47;;;2.80;;
3433;SDS011;1730;41.932;25.548;2022-07-05T08:34:08;4.50;;;2.63;;
3433;SDS011;1730;41.932;25.548;2022-07-05T08:36:34;3.40;;;2.60;;
3433;SDS011;1730;41.932;25.548;2022-07-05T08:38:59;4.90;;;2.70;;
3433;SDS011;1730;41.932;25.548;2022-07-05T08:41:25;3.60;;;2.50;;
3433;SDS011;1730;41.932;25.548;2022-07-05T08:43:50;4.07;;;2.60;;
3433;SDS011;1730;41.932;25.548;2022-07-05T08:46:17;2.57;;;2.40;;
3433;SDS011;1730;41.932;25.548;2022-07-05T08:48:44;7.63;;;2.43;;
3433;SDS011;1730;41.932;25.548;2022-07-05T08:51:14;4.50;;;3.10;;
3433;SDS011;1730;41.932;25.548;2022-07-05T08:53:42;2.93;;;2.50;;
3433;SDS011;1730;41.932;25.548;2022-07-05T08:56:08;3.50;;;2.30;;
3433;SDS011;1730;41.932;25.548;2022-07-05T08:58:35;2.83;;;2.00;;
3433;SDS011;1730;41.932;25.548;2022-07-05T09:01:02;2.47;;;2.10;;
3433;SDS011;1730;41.932;25.548;2022-07-05T09:03:39;2.60;;;2.33;;
3433;SDS011;1730;41.932;25.548;2022-07-05T09:06:09;3.70;;;2.20;;
3433;SDS011;1730;41.932;25.548;2022-07-05T09:08:37;2.80;;;2.60;;
3433;SDS011;1730;41.932;25.548;2022-07-05T09:11:05;3.00;;;2.20;;
3433;SDS011;1730;41.932;25.548;2022-07-05T09:13:36;2.70;;;2.50;;
3433;SDS011;1730;41.932;25.548;2022-07-05T09:16:07;5.27;;;2.47;;
3433;SDS011;1730;41.932;25.548;2022-07-05T09:23:39;2.40;;;2.30;;
3433;SDS011;1730;41.932;25.548;2022-07-05T09:26:05;2.20;;;2.10;;
3433;SDS011;1730;41.932;25.548;2022-07-05T09:28:31;2.60;;;2.43;;
3433;SDS011;1730;41.932;25.548;2022-07-05T09:30:56;12.17;;;2.67;;
3433;SDS011;1730;41.932;25.548;2022-07-05T09:33:22;2.63;;;2.43;;
3433;SDS011;1730;41.932;25.548;2022-07-05T09:35:51;5.90;;;2.50;;
3433;SDS011;1730;41.932;25.548;2022-07-05T09:38:25;4.87;;;2.80;;
3433;SDS011;1730;41.932;25.548;2022-07-05T09:40:51;5.37;;;2.53;;
3433;SDS011;1730;41.932;25.548;2022-07-05T09:43:21;10.47;;;2.77;;
3433;SDS011;1730;41.932;25.548;2022-07-05T09:46:01;12.20;;;2.70;;
3433;SDS011;1730;41.932;25.548;2022-07-05T09:48:29;7.40;;;2.83;;
3433;SDS011;1730;41.932;25.548;2022-07-05T09:53:45;2.37;;;2.17;;
3433;SDS011;1730;41.932;25.548;2022-07-05T09:56:11;5.30;;;2.53;;
3433;SDS011;1730;41.932;25.548;2022-07-05T09:58:37;5.60;;;2.80;;
3433;SDS011;1730;41.932;25.548;2022-07-05T10:01:11;3.83;;;2.30;;
3433;SDS011;1730;41.932;25.548;2022-07-05T10:04:00;3.80;;;2.67;;
3433;SDS011;1730;41.932;25.548;2022-07-05T10:06:27;2.47;;;2.27;;
3433;SDS011;1730;41.932;25.548;2022-07-05T10:08:54;4.63;;;2.40;;
3433;SDS011;1730;41.932;25.548;2022-07-05T10:11:22;8.10;;;2.33;;
3433;SDS011;1730;41.932;25.548;2022-07-05T10:13:49;2.70;;;2.47;;
3433;SDS011;1730;41.932;25.548;2022-07-05T10:16:18;3.50;;;2.83;;
3433;SDS011;1730;41.932;25.548;2022-07-05T10:18:52;2.30;;;2.20;;
3433;SDS011;1730;41.932;25.548;2022-07-05T10:21:23;3.20;;;2.50;;
3433;SDS011;1730;41.932;25.548;2022-07-05T10:23:51;6.03;;;2.73;;
3433;SDS011;1730;41.932;25.548;2022-07-05T10:26:21;3.53;;;2.90;;
3433;SDS011;1730;41.932;25.548;2022-07-05T10:28:53;6.90;;;2.90;;
3433;SDS011;1730;41.932;25.548;2022-07-05T10:31:25;7.23;;;3.30;;
3433;SDS011;1730;41.932;25.548;2022-07-05T10:33:53;4.43;;;3.13;;
3433;SDS011;1730;41.932;25.548;2022-07-05T10:36:20;4.60;;;2.97;;
3433;SDS011;1730;41.932;25.548;2022-07-05T10:38:46;6.07;;;2.40;;
3433;SDS011;1730;41.932;25.548;2022-07-05T10:41:14;10.03;;;3.10;;
3433;SDS011;1730;41.932;25.548;2022-07-05T10:43:51;2.93;;;2.63;;
3433;SDS011;1730;41.932;25.548;2022-07-05T10:46:32;2.90;;;2.57;;
3433;SDS011;1730;41.932;25.548;2022-07-05T10:49:09;2.90;;;2.70;;
3433;SDS011;1730;41.932;25.548;2022-07-05T10:51:37;4.90;;;2.10;;
3433;SDS011;1730;41.932;25.548;2022-07-05T10:54:03;2.60;;;2.40;;
3433;SDS011;1730;41.932;25.548;2022-07-05T10:56:29;10.20;;;2.70;;
3433;SDS011;1730;41.932;25.548;2022-07-05T10:59:05;3.37;;;2.80;;
3433;SDS011;1730;41.932;25.548;2022-07-05T11:01:36;3.80;;;2.80;;
3433;SDS011;1730;41.932;25.548;2022-07-05T11:06:39;4.40;;;3.53;;
3433;SDS011;1730;41.932;25.548;2022-07-05T11:14:01;4.50;;;2.53;;
3433;SDS011;1730;41.932;25.548;2022-07-05T11:16:47;2.73;;;2.33;;
3433;SDS011;1730;41.932;25.548;2022-07-05T11:19:16;4.23;;;2.37;;
3433;SDS011;1730;41.932;25.548;2022-07-05T11:22:00;4.30;;;3.50;;
3433;SDS011;1730;41.932;25.548;2022-07-05T11:24:29;5.83;;;2.80;;
3433;SDS011;1730;41.932;25.548;2022-07-05T11:27:00;3.17;;;2.53;;
3433;SDS011;1730;41.932;25.548;2022-07-05T11:29:43;9.03;;;2.60;;
3433;SDS011;1730;41.932;25.548;2022-07-05T11:32:13;3.93;;;2.03;;
3433;SDS011;1730;41.932;25.548;2022-07-05T11:34:40;2.77;;;2.57;;
3433;SDS011;1730;41.932;25.548;2022-07-05T11:37:26;2.90;;;2.70;;
3433;SDS011;1730;41.932;25.548;2022-07-05T11:42:35;5.43;;;2.40;;
3433;SDS011;1730;41.932;25.548;2022-07-05T11:45:21;5.43;;;2.43;;
3433;SDS011;1730;41.932;25.548;2022-07-05T11:47:47;8.30;;;2.70;;
3433;SDS011;1730;41.932;25.548;2022-07-05T11:50:12;2.83;;;2.63;;
3433;SDS011;1730;41.932;25.548;2022-07-05T11:52:40;3.00;;;2.63;;
3433;SDS011;1730;41.932;25.548;2022-07-05T11:55:07;3.43;;;2.50;;
3433;SDS011;1730;41.932;25.548;2022-07-05T11:57:36;2.87;;;2.67;;
3433;SDS011;1730;41.932;25.548;2022-07-05T12:00:04;3.10;;;2.87;;
3433;SDS011;1730;41.932;25.548;2022-07-05T12:02:30;3.37;;;2.83;;
3433;SDS011;1730;41.932;25.548;2022-07-05T12:04:56;3.43;;;2.37;;
3433;SDS011;1730;41.932;25.548;2022-07-05T12:07:33;5.10;;;2.83;;
3433;SDS011;1730;41.932;25.548;2022-07-05T12:10:00;4.03;;;3.13;;
3433;SDS011;1730;41.932;25.548;2022-07-05T12:12:46;8.93;;;2.90;;
3433;SDS011;1730;41.932;25.548;2022-07-05T12:15:18;5.63;;;2.90;;
3433;SDS011;1730;41.932;25.548;2022-07-05T12:17:47;3.40;;;3.10;;
3433;SDS011;1730;41.932;25.548;2022-07-05T12:20:15;4.20;;;3.40;;
3433;SDS011;1730;41.932;25.548;2022-07-05T12:22:47;3.37;;;3.03;;
3433;SDS011;1730;41.932;25.548;2022-07-05T12:25:13;3.10;;;2.90;;
3433;SDS011;1730;41.932;25.548;2022-07-05T12:27:41;3.27;;;2.97;;
3433;SDS011;1730;41.932;25.548;2022-07-05T12:30:09;2.97;;;2.73;;
3433;SDS011;1730;41.932;25.548;2022-07-05T12:35:42;3.50;;;3.30;;
3433;SDS011;1730;41.932;25.548;2022-07-05T12:38:11;3.20;;;3.00;;
3433;SDS011;1730;41.932;25.548;2022-07-05T12:40:45;4.60;;;3.13;;
3433;SDS011;1730;41.932;25.548;2022-07-05T12:43:12;3.57;;;3.37;;
3433;SDS011;1730;41.932;25.548;2022-07-05T12:45:42;3.73;;;3.37;;
3433;SDS011;1730;41.932;25.548;2022-07-05T12:48:09;3.20;;;2.90;;
3433;SDS011;1730;41.932;25.548;2022-07-05T12:50:44;3.60;;;3.30;;
3433;SDS011;1730;41.932;25.548;2022-07-05T12:53:10;3.27;;;3.07;;
3433;SDS011;1730;41.932;25.548;2022-07-05T12:55:59;3.13;;;2.93;;
3433;SDS011;1730;41.932;25.548;2022-07-05T12:58:54;5.53;;;3.40;;
3433;SDS011;1730;41.932;25.548;2022-07-05T13:03:58;4.50;;;3.97;;
3433;SDS011;1730;41.932;25.548;2022-07-05T13:06:40;4.53;;;3.80;;
3433;SDS011;1730;41.932;25.548;2022-07-05T13:09:06;4.57;;;3.73;;
3433;SDS011;1730;41.932;25.548;2022-07-05T13:11:32;4.83;;;4.00;;
3433;SDS011;1730;41.932;25.548;2022-07-05T13:13:59;6.80;;;3.87;;
3433;SDS011;1730;41.932;25.548;2022-07-05T13:16:26;4.27;;;3.97;;
3433;SDS011;1730;41.932;25.548;2022-07-05T13:18:51;5.00;;;3.80;;
3433;SDS011;1730;41.932;25.548;2022-07-05T13:21:17;4.73;;;4.10;;
3433;SDS011;1730;41.932;25.548;2022-07-05T13:23:42;8.70;;;4.13;;
3433;SDS011;1730;41.932;25.548;2022-07-05T13:26:08;8.23;;;3.73;;
3433;SDS011;1730;41.932;25.548;2022-07-05T13:28:34;4.23;;;3.83;;
3433;SDS011;1730;41.932;25.548;2022-07-05T13:31:00;5.20;;;3.80;;
3433;SDS011;1730;41.932;25.548;2022-07-05T13:33:25;5.87;;;3.83;;
3433;SDS011;1730;41.932;25.548;2022-07-05T13:35:51;4.13;;;3.40;;
3433;SDS011;1730;41.932;25.548;2022-07-05T13:38:16;3.40;;;3.20;;
3433;SDS011;1730;41.932;25.548;2022-07-05T13:40:42;6.93;;;4.10;;
3433;SDS011;1730;41.932;25.548;2022-07-05T13:43:07;6.33;;;3.93;;
3433;SDS011;1730;41.932;25.548;2022-07-05T13:45:33;12.17;;;3.30;;
3433;SDS011;1730;41.932;25.548;2022-07-05T13:47:59;5.80;;;3.33;;
3433;SDS011;1730;41.932;25.548;2022-07-05T13:50:24;7.33;;;3.00;;
3433;SDS011;1730;41.932;25.548;2022-07-05T13:53:00;4.00;;;3.10;;
3433;SDS011;1730;41.932;25.548;2022-07-05T13:55:27;3.30;;;3.10;;
3433;SDS011;1730;41.932;25.548;2022-07-05T13:57:53;6.20;;;3.67;;
3433;SDS011;1730;41.932;25.548;2022-07-05T14:00:23;4.87;;;3.23;;
3433;SDS011;1730;41.932;25.548;2022-07-05T14:02:48;5.80;;;3.93;;
3433;SDS011;1730;41.932;25.548;2022-07-05T14:05:14;3.77;;;3.40;;
3433;SDS011;1730;41.932;25.548;2022-07-05T14:07:41;6.23;;;3.50;;
3433;SDS011;1730;41.932;25.548;2022-07-05T14:10:07;7.33;;;3.70;;
3433;SDS011;1730;41.932;25.548;2022-07-05T14:12:33;4.10;;;3.10;;
3433;SDS011;1730;41.932;25.548;2022-07-05T14:14:58;6.90;;;3.23;;
3433;SDS011;1730;41.932;25.548;2022-07-05T14:17:24;3.40;;;3.10;;
3433;SDS011;1730;41.932;25.548;2022-07-05T14:19:49;3.37;;;3.17;;
3433;SDS011;1730;41.932;25.548;2022-07-05T14:22:15;4.40;;;3.10;;
3433;SDS011;1730;41.932;25.548;2022-07-05T14:24:41;3.20;;;3.00;;
3433;SDS011;1730;41.932;25.548;2022-07-05T14:27:06;3.60;;;3.30;;
3433;SDS011;1730;41.932;25.548;2022-07-05T14:29:32;3.90;;;3.50;;
3433;SDS011;1730;41.932;25.548;2022-07-05T14:31:58;4.47;;;4.17;;
3433;SDS011;1730;41.932;25.548;2022-07-05T14:34:25;6.10;;;3.60;;
3433;SDS011;1730;41.932;25.548;2022-07-05T14:36:52;3.83;;;3.53;;
3433;SDS011;1730;41.932;25.548;2022-07-05T14:39:18;4.30;;;4.00;;
3433;SDS011;1730;41.932;25.548;2022-07-05T14:41:45;3.70;;;3.40;;
3433;SDS011;1730;41.932;25.548;2022-07-05T14:44:11;4.10;;;3.80;;
3433;SDS011;1730;41.932;25.548;2022-07-05T14:46:36;4.80;;;3.63;;
3433;SDS011;1730;41.932;25.548;2022-07-05T14:49:02;3.87;;;3.57;;
3433;SDS011;1730;41.932;25.548;2022-07-05T14:51:27;8.07;;;4.27;;
3433;SDS011;1730;41.932;25.548;2022-07-05T14:53:53;6.07;;;3.87;;
3433;SDS011;1730;41.932;25.548;2022-07-05T14:56:19;13.97;;;3.83;;
3433;SDS011;1730;41.932;25.548;2022-07-05T14:58:44;3.63;;;3.30;;
3433;SDS011;1730;41.932;25.548;2022-07-05T15:01:10;3.50;;;3.20;;
3433;SDS011;1730;41.932;25.548;2022-07-05T15:03:36;4.10;;;3.80;;
3433;SDS011;1730;41.932;25.548;2022-07-05T15:06:05;8.20;;;3.70;;
3433;SDS011;1730;41.932;25.548;2022-07-05T15:08:30;7.30;;;4.03;;
3433;SDS011;1730;41.932;25.548;2022-07-05T15:10:56;7.97;;;4.17;;
3433;SDS011;1730;41.932;25.548;2022-07-05T15:13:24;4.20;;;3.30;;
3433;SDS011;1730;41.932;25.548;2022-07-05T15:15:52;4.03;;;3.70;;
3433;SDS011;1730;41.932;25.548;2022-07-05T15:18:18;4.30;;;3.20;;
3433;SDS011;1730;41.932;25.548;2022-07-05T15:20:44;5.47;;;4.47;;
3433;SDS011;1730;41.932;25.548;2022-07-05T15:23:10;4.80;;;4.30;;
3433;SDS011;1730;41.932;25.548;2022-07-05T15:25:36;4.13;;;3.67;;
3433;SDS011;1730;41.932;25.548;2022-07-05T15:28:02;4.47;;;3.47;;